sensor_id;sensor_type;location;lat;lon;timestamp;P1;P2;P0
30713;PMS7003;17465;47.934;33.430;2023-05-07T00:00:33;20.75;20.00;11.00
30713;PMS7003;17465;47.934;33.430;2023-05-07T00:02:58;18.25;16.75;11.50
30713;PMS7003;17465;47.934;33.430;2023-05-07T00:05:29;18.00;18.00;11.50
30713;PMS7003;17465;47.934;33.430;2023-05-07T00:08:00;26.50;24.00;13.50
30713;PMS7003;17465;47.934;33.430;2023-05-07T00:10:31;18.00;16.00;9.25
30713;PMS7003;17465;47.934;33.430;2023-05-07T00:13:01;20.75;20.25;14.25
30713;PMS7003;17465;47.934;33.430;2023-05-07T00:15:34;26.00;23.50;16.00
30713;PMS7003;17465;47.934;33.430;2023-05-07T00:18:05;26.25;24.00;13.75
30713;PMS7003;17465;47.934;33.430;2023-05-07T00:20:35;26.25;24.25;16.50
30713;PMS7003;17465;47.934;33.430;2023-05-07T00:23:06;18.25;16.00;9.50
30713;PMS7003;17465;47.934;33.430;2023-05-07T00:25:36;22.25;21.50;14.00
30713;PMS7003;17465;47.934;33.430;2023-05-07T00:28:07;20.00;15.25;9.75
30713;PMS7003;17465;47.934;33.430;2023-05-07T00:30:37;16.00;15.50;10.00
30713;PMS7003;17465;47.934;33.430;2023-05-07T00:33:08;15.00;15.00;9.75
30713;PMS7003;17465;47.934;33.430;2023-05-07T00:35:38;17.75;16.50;10.75
30713;PMS7003;17465;47.934;33.430;2023-05-07T00:38:08;16.25;15.50;10.75
30713;PMS7003;17465;47.934;33.430;2023-05-07T00:40:39;20.50;19.50;11.75
30713;PMS7003;17465;47.934;33.430;2023-05-07T00:43:09;21.75;21.50;14.00
30713;PMS7003;17465;47.934;33.430;2023-05-07T00:45:40;25.50;21.25;14.50
30713;PMS7003;17465;47.934;33.430;2023-05-07T00:48:10;23.00;22.25;16.75
30713;PMS7003;17465;47.934;33.430;2023-05-07T00:50:41;26.75;25.50;18.00
30713;PMS7003;17465;47.934;33.430;2023-05-07T00:53:12;28.25;25.50;16.75
30713;PMS7003;17465;47.934;33.430;2023-05-07T00:55:43;29.50;27.25;16.00
30713;PMS7003;17465;47.934;33.430;2023-05-07T00:58:14;25.00;21.50;15.75
30713;PMS7003;17465;47.934;33.430;2023-05-07T01:00:44;23.00;22.25;14.50
30713;PMS7003;17465;47.934;33.430;2023-05-07T01:03:16;20.75;20.00;13.50
30713;PMS7003;17465;47.934;33.430;2023-05-07T01:05:47;16.75;16.00;10.00
30713;PMS7003;17465;47.934;33.430;2023-05-07T01:08:19;15.00;14.50;9.00
30713;PMS7003;17465;47.934;33.430;2023-05-07T01:10:51;15.50;13.50;9.00
30713;PMS7003;17465;47.934;33.430;2023-05-07T01:13:24;13.00;11.25;7.25
30713;PMS7003;17465;47.934;33.430;2023-05-07T01:15:55;8.50;8.25;6.00
30713;PMS7003;17465;47.934;33.430;2023-05-07T01:18:26;13.75;13.75;7.75
30713;PMS7003;17465;47.934;33.430;2023-05-07T01:20:57;14.25;14.25;6.50
30713;PMS7003;17465;47.934;33.430;2023-05-07T01:23:29;10.75;9.75;7.25
30713;PMS7003;17465;47.934;33.430;2023-05-07T01:26:00;13.75;11.75;6.25
30713;PMS7003;17465;47.934;33.430;2023-05-07T01:28:30;9.50;9.50;6.25
30713;PMS7003;17465;47.934;33.430;2023-05-07T01:31:02;14.50;13.00;7.75
30713;PMS7003;17465;47.934;33.430;2023-05-07T01:33:34;10.50;10.50;6.00
30713;PMS7003;17465;47.934;33.430;2023-05-07T01:36:07;13.75;10.50;8.00
30713;PMS7003;17465;47.934;33.430;2023-05-07T01:38:38;16.00;14.75;8.75
30713;PMS7003;17465;47.934;33.430;2023-05-07T01:41:12;18.25;14.50;7.25
30713;PMS7003;17465;47.934;33.430;2023-05-07T01:43:43;15.75;14.75;9.00
30713;PMS7003;17465;47.934;33.430;2023-05-07T01:46:14;21.25;18.75;12.25
30713;PMS7003;17465;47.934;33.430;2023-05-07T01:48:45;16.25;13.00;6.25
30713;PMS7003;17465;47.934;33.430;2023-05-07T01:51:16;16.25;16.25;9.75
30713;PMS7003;17465;47.934;33.430;2023-05-07T01:53:46;17.50;17.00;9.75
30713;PMS7003;17465;47.934;33.430;2023-05-07T01:56:17;19.50;18.75;9.00
30713;PMS7003;17465;47.934;33.430;2023-05-07T01:58:55;22.00;20.50;13.50
30713;PMS7003;17465;47.934;33.430;2023-05-07T02:01:26;19.00;18.75;10.25
30713;PMS7003;17465;47.934;33.430;2023-05-07T02:03:56;23.25;21.75;12.50
30713;PMS7003;17465;47.934;33.430;2023-05-07T02:06:27;17.25;15.25;9.75
30713;PMS7003;17465;47.934;33.430;2023-05-07T02:08:57;26.00;20.00;12.00
30713;PMS7003;17465;47.934;33.430;2023-05-07T02:11:28;24.50;24.25;13.25
30713;PMS7003;17465;47.934;33.430;2023-05-07T02:13:58;20.25;19.75;9.75
30713;PMS7003;17465;47.934;33.430;2023-05-07T02:16:29;24.50;21.25;13.00
30713;PMS7003;17465;47.934;33.430;2023-05-07T02:18:59;24.25;23.75;14.00
30713;PMS7003;17465;47.934;33.430;2023-05-07T02:21:36;25.50;22.00;13.25
30713;PMS7003;17465;47.934;33.430;2023-05-07T02:24:02;29.25;28.25;14.00
30713;PMS7003;17465;47.934;33.430;2023-05-07T02:26:32;29.00;22.75;15.25
30713;PMS7003;17465;47.934;33.430;2023-05-07T02:29:03;24.25;22.75;14.00
30713;PMS7003;17465;47.934;33.430;2023-05-07T02:31:34;26.00;21.50;13.25
30713;PMS7003;17465;47.934;33.430;2023-05-07T02:34:05;24.00;22.00;13.00
30713;PMS7003;17465;47.934;33.430;2023-05-07T02:36:35;25.75;21.50;12.00
30713;PMS7003;17465;47.934;33.430;2023-05-07T02:39:05;17.75;17.25;12.00
30713;PMS7003;17465;47.934;33.430;2023-05-07T02:41:36;24.00;23.50;12.25
30713;PMS7003;17465;47.934;33.430;2023-05-07T02:44:06;19.00;19.00;13.50
30713;PMS7003;17465;47.934;33.430;2023-05-07T02:46:37;23.75;22.25;13.50
30713;PMS7003;17465;47.934;33.430;2023-05-07T02:49:08;29.75;24.25;15.00
30713;PMS7003;17465;47.934;33.430;2023-05-07T02:51:38;24.50;23.00;14.25
30713;PMS7003;17465;47.934;33.430;2023-05-07T02:54:14;25.50;23.50;13.25
30713;PMS7003;17465;47.934;33.430;2023-05-07T02:56:51;32.25;25.25;12.75
30713;PMS7003;17465;47.934;33.430;2023-05-07T02:59:21;22.00;22.00;13.00
30713;PMS7003;17465;47.934;33.430;2023-05-07T03:01:52;19.75;19.00;13.00
30713;PMS7003;17465;47.934;33.430;2023-05-07T03:04:25;28.50;23.75;12.75
30713;PMS7003;17465;47.934;33.430;2023-05-07T03:06:55;27.00;25.25;15.00
30713;PMS7003;17465;47.934;33.430;2023-05-07T03:09:26;28.25;25.25;12.50
30713;PMS7003;17465;47.934;33.430;2023-05-07T03:11:56;26.00;24.50;14.50
30713;PMS7003;17465;47.934;33.430;2023-05-07T03:14:27;26.25;24.25;14.75
30713;PMS7003;17465;47.934;33.430;2023-05-07T03:16:57;22.75;19.75;11.75
30713;PMS7003;17465;47.934;33.430;2023-05-07T03:19:29;25.50;19.75;12.00
30713;PMS7003;17465;47.934;33.430;2023-05-07T03:22:00;19.50;18.00;12.75
30713;PMS7003;17465;47.934;33.430;2023-05-07T03:24:30;19.25;19.25;12.00
30713;PMS7003;17465;47.934;33.430;2023-05-07T03:27:01;19.50;19.50;12.00
30713;PMS7003;17465;47.934;33.430;2023-05-07T03:29:31;19.50;19.50;10.75
30713;PMS7003;17465;47.934;33.430;2023-05-07T03:32:04;15.75;13.50;7.50
30713;PMS7003;17465;47.934;33.430;2023-05-07T03:34:34;22.50;20.00;8.50
30713;PMS7003;17465;47.934;33.430;2023-05-07T03:37:04;19.25;18.75;8.25
30713;PMS7003;17465;47.934;33.430;2023-05-07T03:39:36;17.50;17.00;9.75
30713;PMS7003;17465;47.934;33.430;2023-05-07T03:42:07;20.75;18.75;11.25
30713;PMS7003;17465;47.934;33.430;2023-05-07T03:44:37;11.75;11.75;6.00
30713;PMS7003;17465;47.934;33.430;2023-05-07T03:47:11;18.50;15.00;9.50
30713;PMS7003;17465;47.934;33.430;2023-05-07T03:49:41;12.75;12.75;6.75
30713;PMS7003;17465;47.934;33.430;2023-05-07T03:52:18;15.25;13.50;6.00
30713;PMS7003;17465;47.934;33.430;2023-05-07T03:54:47;17.25;15.00;8.00
30713;PMS7003;17465;47.934;33.430;2023-05-07T03:57:19;15.00;13.50;8.25
30713;PMS7003;17465;47.934;33.430;2023-05-07T03:59:50;9.50;9.50;7.50
30713;PMS7003;17465;47.934;33.430;2023-05-07T04:02:21;72.75;55.50;33.75
30713;PMS7003;17465;47.934;33.430;2023-05-07T04:04:53;25.50;23.75;11.25
30713;PMS7003;17465;47.934;33.430;2023-05-07T04:07:25;20.25;19.50;10.75
30713;PMS7003;17465;47.934;33.430;2023-05-07T04:09:55;10.00;10.00;4.50
30713;PMS7003;17465;47.934;33.430;2023-05-07T04:12:26;11.00;10.75;7.25
30713;PMS7003;17465;47.934;33.430;2023-05-07T04:14:57;19.75;17.25;10.50
30713;PMS7003;17465;47.934;33.430;2023-05-07T04:17:29;45.75;40.50;24.75
30713;PMS7003;17465;47.934;33.430;2023-05-07T04:20:00;14.00;14.00;10.75
30713;PMS7003;17465;47.934;33.430;2023-05-07T04:22:31;19.50;19.50;12.00
30713;PMS7003;17465;47.934;33.430;2023-05-07T04:25:02;22.50;18.00;8.00
30713;PMS7003;17465;47.934;33.430;2023-05-07T04:27:33;22.50;15.75;9.75
30713;PMS7003;17465;47.934;33.430;2023-05-07T04:30:05;8.00;8.00;4.25
30713;PMS7003;17465;47.934;33.430;2023-05-07T04:32:42;16.75;16.25;9.00
30713;PMS7003;17465;47.934;33.430;2023-05-07T04:35:16;15.00;14.00;5.50
30713;PMS7003;17465;47.934;33.430;2023-05-07T04:37:46;15.50;14.50;8.50
30713;PMS7003;17465;47.934;33.430;2023-05-07T04:40:17;14.75;14.50;10.00
30713;PMS7003;17465;47.934;33.430;2023-05-07T04:42:47;14.25;13.50;7.00
30713;PMS7003;17465;47.934;33.430;2023-05-07T04:45:18;16.00;14.25;8.25
30713;PMS7003;17465;47.934;33.430;2023-05-07T04:47:49;13.25;12.75;6.25
30713;PMS7003;17465;47.934;33.430;2023-05-07T04:50:19;12.75;12.00;5.00
30713;PMS7003;17465;47.934;33.430;2023-05-07T04:52:50;10.25;9.25;4.00
30713;PMS7003;17465;47.934;33.430;2023-05-07T04:55:20;12.75;11.25;8.75
30713;PMS7003;17465;47.934;33.430;2023-05-07T04:57:55;10.50;9.00;4.25
30713;PMS7003;17465;47.934;33.430;2023-05-07T05:00:25;11.00;9.50;5.00
30713;PMS7003;17465;47.934;33.430;2023-05-07T05:02:56;7.75;7.25;4.00
30713;PMS7003;17465;47.934;33.430;2023-05-07T05:05:26;11.25;11.25;7.50
30713;PMS7003;17465;47.934;33.430;2023-05-07T05:07:57;14.75;11.75;6.00
30713;PMS7003;17465;47.934;33.430;2023-05-07T05:10:27;9.25;9.25;5.75
30713;PMS7003;17465;47.934;33.430;2023-05-07T05:12:57;8.00;8.00;4.50
30713;PMS7003;17465;47.934;33.430;2023-05-07T05:15:28;22.75;20.75;11.50
30713;PMS7003;17465;47.934;33.430;2023-05-07T05:18:00;19.00;13.00;4.50
30713;PMS7003;17465;47.934;33.430;2023-05-07T05:20:31;50.00;40.50;28.50
30713;PMS7003;17465;47.934;33.430;2023-05-07T05:23:01;26.25;23.75;14.50
30713;PMS7003;17465;47.934;33.430;2023-05-07T05:25:32;24.75;24.75;14.00
30713;PMS7003;17465;47.934;33.430;2023-05-07T05:28:02;12.50;12.00;8.50
30713;PMS7003;17465;47.934;33.430;2023-05-07T05:30:33;10.25;10.25;4.75
30713;PMS7003;17465;47.934;33.430;2023-05-07T05:33:04;13.75;13.75;6.25
30713;PMS7003;17465;47.934;33.430;2023-05-07T05:35:35;9.50;9.00;4.75
30713;PMS7003;17465;47.934;33.430;2023-05-07T05:38:05;13.00;11.50;6.00
30713;PMS7003;17465;47.934;33.430;2023-05-07T05:40:37;9.25;9.25;6.25
30713;PMS7003;17465;47.934;33.430;2023-05-07T05:43:07;11.50;7.50;3.75
30713;PMS7003;17465;47.934;33.430;2023-05-07T05:45:38;92.00;81.25;47.00
30713;PMS7003;17465;47.934;33.430;2023-05-07T05:48:08;51.25;42.25;25.00
30713;PMS7003;17465;47.934;33.430;2023-05-07T05:50:39;21.25;20.25;10.75
30713;PMS7003;17465;47.934;33.430;2023-05-07T05:53:11;12.00;11.25;8.00
30713;PMS7003;17465;47.934;33.430;2023-05-07T05:55:41;14.00;13.75;8.75
30713;PMS7003;17465;47.934;33.430;2023-05-07T05:58:26;12.50;11.00;5.50
30713;PMS7003;17465;47.934;33.430;2023-05-07T06:00:58;6.75;6.00;5.00
30713;PMS7003;17465;47.934;33.430;2023-05-07T06:03:29;15.25;10.25;5.75
30713;PMS7003;17465;47.934;33.430;2023-05-07T06:06:02;12.00;9.25;5.00
30713;PMS7003;17465;47.934;33.430;2023-05-07T06:08:35;8.75;8.75;5.75
30713;PMS7003;17465;47.934;33.430;2023-05-07T06:11:06;9.50;9.50;4.75
30713;PMS7003;17465;47.934;33.430;2023-05-07T06:13:39;9.50;9.50;5.00
30713;PMS7003;17465;47.934;33.430;2023-05-07T06:16:09;8.00;7.00;4.25
30713;PMS7003;17465;47.934;33.430;2023-05-07T06:18:41;10.25;8.75;5.25
30713;PMS7003;17465;47.934;33.430;2023-05-07T06:21:13;7.25;7.25;5.75
30713;PMS7003;17465;47.934;33.430;2023-05-07T06:23:47;10.50;8.50;5.00
30713;PMS7003;17465;47.934;33.430;2023-05-07T06:26:18;10.25;9.75;6.00
30713;PMS7003;17465;47.934;33.430;2023-05-07T06:28:49;64.00;50.25;33.00
30713;PMS7003;17465;47.934;33.430;2023-05-07T06:31:22;20.25;20.25;13.50
30713;PMS7003;17465;47.934;33.430;2023-05-07T06:33:54;7.00;7.00;5.00
30713;PMS7003;17465;47.934;33.430;2023-05-07T06:36:26;12.00;12.00;7.00
30713;PMS7003;17465;47.934;33.430;2023-05-07T06:38:56;8.75;8.75;5.00
30713;PMS7003;17465;47.934;33.430;2023-05-07T06:41:28;8.00;5.50;3.50
30713;PMS7003;17465;47.934;33.430;2023-05-07T06:43:59;10.00;9.00;5.00
30713;PMS7003;17465;47.934;33.430;2023-05-07T06:46:39;7.75;7.75;5.50
30713;PMS7003;17465;47.934;33.430;2023-05-07T06:49:05;9.00;8.25;5.75
30713;PMS7003;17465;47.934;33.430;2023-05-07T06:51:37;9.50;8.25;5.25
30713;PMS7003;17465;47.934;33.430;2023-05-07T06:54:09;9.25;9.25;6.00
30713;PMS7003;17465;47.934;33.430;2023-05-07T06:56:41;10.00;9.00;5.00
30713;PMS7003;17465;47.934;33.430;2023-05-07T06:59:17;9.80;9.80;5.20
30713;PMS7003;17465;47.934;33.430;2023-05-07T07:01:49;8.00;8.00;6.60
30713;PMS7003;17465;47.934;33.430;2023-05-07T07:04:20;8.20;8.20;6.20
30713;PMS7003;17465;47.934;33.430;2023-05-07T07:06:54;12.20;8.00;5.00
30713;PMS7003;17465;47.934;33.430;2023-05-07T07:09:24;10.40;7.20;4.20
30713;PMS7003;17465;47.934;33.430;2023-05-07T07:12:09;6.60;6.20;4.20
30713;PMS7003;17465;47.934;33.430;2023-05-07T07:14:40;6.00;5.60;2.80
30713;PMS7003;17465;47.934;33.430;2023-05-07T07:17:10;8.20;7.80;4.40
30713;PMS7003;17465;47.934;33.430;2023-05-07T07:19:41;7.60;7.00;4.00
30713;PMS7003;17465;47.934;33.430;2023-05-07T07:22:14;6.20;6.20;3.40
30713;PMS7003;17465;47.934;33.430;2023-05-07T07:24:52;0.00;0.00;0.00
30713;PMS7003;17465;47.934;33.430;2023-05-07T07:27:22;6.40;6.40;4.40
30713;PMS7003;17465;47.934;33.430;2023-05-07T07:29:56;4.60;4.40;3.20
30713;PMS7003;17465;47.934;33.430;2023-05-07T07:32:26;7.60;7.40;4.20
30713;PMS7003;17465;47.934;33.430;2023-05-07T07:34:56;8.80;7.40;4.00
30713;PMS7003;17465;47.934;33.430;2023-05-07T07:37:27;5.80;5.80;2.40
30713;PMS7003;17465;47.934;33.430;2023-05-07T07:39:57;9.80;8.60;5.00
30713;PMS7003;17465;47.934;33.430;2023-05-07T07:42:31;7.00;7.00;4.20
30713;PMS7003;17465;47.934;33.430;2023-05-07T07:45:03;6.40;6.40;4.20
30713;PMS7003;17465;47.934;33.430;2023-05-07T07:47:35;4.40;4.40;1.60
30713;PMS7003;17465;47.934;33.430;2023-05-07T07:50:06;5.00;5.00;3.40
30713;PMS7003;17465;47.934;33.430;2023-05-07T07:52:49;5.40;5.40;2.40
30713;PMS7003;17465;47.934;33.430;2023-05-07T07:55:26;6.20;6.20;3.80
30713;PMS7003;17465;47.934;33.430;2023-05-07T07:58:21;6.40;6.00;4.40
30713;PMS7003;17465;47.934;33.430;2023-05-07T08:00:39;7.80;7.80;5.00
30713;PMS7003;17465;47.934;33.430;2023-05-07T08:03:12;4.00;4.00;2.20
30713;PMS7003;17465;47.934;33.430;2023-05-07T08:05:43;4.80;4.00;2.80
30713;PMS7003;17465;47.934;33.430;2023-05-07T08:08:16;7.80;7.80;4.00
30713;PMS7003;17465;47.934;33.430;2023-05-07T08:10:47;6.80;6.80;5.00
30713;PMS7003;17465;47.934;33.430;2023-05-07T08:13:18;6.20;5.00;2.60
30713;PMS7003;17465;47.934;33.430;2023-05-07T08:15:52;2.00;2.00;1.60
30713;PMS7003;17465;47.934;33.430;2023-05-07T08:18:25;9.00;7.00;3.80
30713;PMS7003;17465;47.934;33.430;2023-05-07T08:20:56;7.80;6.60;4.20
30713;PMS7003;17465;47.934;33.430;2023-05-07T08:23:27;8.00;8.00;6.00
30713;PMS7003;17465;47.934;33.430;2023-05-07T08:26:01;5.80;5.40;3.00
30713;PMS7003;17465;47.934;33.430;2023-05-07T08:28:32;7.40;7.40;3.80
30713;PMS7003;17465;47.934;33.430;2023-05-07T08:31:07;8.20;8.20;5.60
30713;PMS7003;17465;47.934;33.430;2023-05-07T08:33:42;7.00;6.00;3.00
30713;PMS7003;17465;47.934;33.430;2023-05-07T08:36:20;9.80;7.00;4.00
30713;PMS7003;17465;47.934;33.430;2023-05-07T08:38:49;8.00;8.00;5.60
30713;PMS7003;17465;47.934;33.430;2023-05-07T08:41:23;6.60;6.60;3.60
30713;PMS7003;17465;47.934;33.430;2023-05-07T08:43:53;5.80;5.40;3.80
30713;PMS7003;17465;47.934;33.430;2023-05-07T08:46:29;6.20;6.20;4.40
30713;PMS7003;17465;47.934;33.430;2023-05-07T08:49:01;8.20;8.20;4.80
30713;PMS7003;17465;47.934;33.430;2023-05-07T08:51:38;10.80;10.80;7.60
30713;PMS7003;17465;47.934;33.430;2023-05-07T08:54:12;5.20;4.80;3.20
30713;PMS7003;17465;47.934;33.430;2023-05-07T08:56:45;5.00;5.00;2.00
30713;PMS7003;17465;47.934;33.430;2023-05-07T08:59:16;6.20;5.80;3.40
30713;PMS7003;17465;47.934;33.430;2023-05-07T09:01:50;4.00;4.00;3.00
30713;PMS7003;17465;47.934;33.430;2023-05-07T09:04:21;7.00;6.80;3.60
30713;PMS7003;17465;47.934;33.430;2023-05-07T09:06:54;9.00;7.40;5.40
30713;PMS7003;17465;47.934;33.430;2023-05-07T09:09:35;6.00;5.60;3.00
30713;PMS7003;17465;47.934;33.430;2023-05-07T09:12:21;5.80;5.80;3.80
30713;PMS7003;17465;47.934;33.430;2023-05-07T09:17:28;6.20;6.20;4.20
30713;PMS7003;17465;47.934;33.430;2023-05-07T09:20:19;6.60;6.60;4.60
30713;PMS7003;17465;47.934;33.430;2023-05-07T09:22:51;7.40;5.00;3.00
30713;PMS7003;17465;47.934;33.430;2023-05-07T09:25:18;6.00;5.80;4.80
30713;PMS7003;17465;47.934;33.430;2023-05-07T09:27:54;8.40;7.60;4.80
30713;PMS7003;17465;47.934;33.430;2023-05-07T09:30:40;7.40;6.40;4.40
30713;PMS7003;17465;47.934;33.430;2023-05-07T09:33:09;9.40;8.00;5.00
30713;PMS7003;17465;47.934;33.430;2023-05-07T09:35:40;9.20;9.20;5.60
30713;PMS7003;17465;47.934;33.430;2023-05-07T09:38:12;5.40;5.40;3.80
30713;PMS7003;17465;47.934;33.430;2023-05-07T09:40:43;8.00;8.00;5.00
30713;PMS7003;17465;47.934;33.430;2023-05-07T09:43:14;7.00;5.00;4.40
30713;PMS7003;17465;47.934;33.430;2023-05-07T09:45:46;8.60;8.60;5.00
30713;PMS7003;17465;47.934;33.430;2023-05-07T09:48:22;9.80;9.60;6.60
30713;PMS7003;17465;47.934;33.430;2023-05-07T09:50:55;8.20;7.80;4.40
30713;PMS7003;17465;47.934;33.430;2023-05-07T09:53:30;7.00;7.00;4.80
30713;PMS7003;17465;47.934;33.430;2023-05-07T09:56:03;8.80;8.80;6.00
30713;PMS7003;17465;47.934;33.430;2023-05-07T09:58:36;8.60;7.20;4.00
30713;PMS7003;17465;47.934;33.430;2023-05-07T10:01:10;9.80;9.20;6.20
30713;PMS7003;17465;47.934;33.430;2023-05-07T10:03:43;5.60;5.60;3.20
30713;PMS7003;17465;47.934;33.430;2023-05-07T10:06:15;8.20;8.20;6.00
30713;PMS7003;17465;47.934;33.430;2023-05-07T10:08:46;8.20;8.20;5.60
30713;PMS7003;17465;47.934;33.430;2023-05-07T10:11:19;7.00;7.00;5.00
30713;PMS7003;17465;47.934;33.430;2023-05-07T10:13:55;5.80;5.80;4.00
30713;PMS7003;17465;47.934;33.430;2023-05-07T10:16:30;7.00;7.00;5.00
30713;PMS7003;17465;47.934;33.430;2023-05-07T10:19:04;5.20;5.20;2.00
30713;PMS7003;17465;47.934;33.430;2023-05-07T10:21:38;6.60;5.00;3.40
30713;PMS7003;17465;47.934;33.430;2023-05-07T10:24:25;5.00;5.00;4.00
30713;PMS7003;17465;47.934;33.430;2023-05-07T10:26:51;6.00;6.00;4.00
30713;PMS7003;17465;47.934;33.430;2023-05-07T10:32:30;7.40;5.20;4.00
30713;PMS7003;17465;47.934;33.430;2023-05-07T10:35:14;9.00;7.20;3.80
30713;PMS7003;17465;47.934;33.430;2023-05-07T10:37:46;6.40;6.40;5.00
30713;PMS7003;17465;47.934;33.430;2023-05-07T10:40:28;5.80;5.80;3.00
30713;PMS7003;17465;47.934;33.430;2023-05-07T10:43:02;8.00;8.00;4.60
30713;PMS7003;17465;47.934;33.430;2023-05-07T10:45:42;4.00;1.40;0.00
30713;PMS7003;17465;47.934;33.430;2023-05-07T10:48:11;5.00;5.00;3.00
30713;PMS7003;17465;47.934;33.430;2023-05-07T10:50:50;6.20;6.20;4.00
30713;PMS7003;17465;47.934;33.430;2023-05-07T10:55:51;4.60;4.20;2.00
30713;PMS7003;17465;47.934;33.430;2023-05-07T10:58:25;3.00;3.00;2.00
30713;PMS7003;17465;47.934;33.430;2023-05-07T11:00:59;6.20;6.20;3.80
30713;PMS7003;17465;47.934;33.430;2023-05-07T11:03:31;5.00;5.00;3.00
30713;PMS7003;17465;47.934;33.430;2023-05-07T11:06:11;3.80;3.80;2.20
30713;PMS7003;17465;47.934;33.430;2023-05-07T11:11:46;6.20;6.20;3.60
30713;PMS7003;17465;47.934;33.430;2023-05-07T11:14:42;5.60;5.60;3.00
30713;PMS7003;17465;47.934;33.430;2023-05-07T11:17:14;6.60;5.80;4.00
30713;PMS7003;17465;47.934;33.430;2023-05-07T11:19:51;6.00;6.00;4.20
30713;PMS7003;17465;47.934;33.430;2023-05-07T11:25:07;3.20;3.20;2.20
30713;PMS7003;17465;47.934;33.430;2023-05-07T11:27:39;7.00;5.00;3.60
30713;PMS7003;17465;47.934;33.430;2023-05-07T11:30:24;3.40;3.00;2.40
30713;PMS7003;17465;47.934;33.430;2023-05-07T11:33:08;5.40;3.00;1.00
30713;PMS7003;17465;47.934;33.430;2023-05-07T11:35:38;4.40;4.40;3.00
30713;PMS7003;17465;47.934;33.430;2023-05-07T11:38:10;4.20;4.20;1.80
30713;PMS7003;17465;47.934;33.430;2023-05-07T11:43:40;3.20;3.20;1.40
30713;PMS7003;17465;47.934;33.430;2023-05-07T11:46:11;5.00;5.00;2.20
30713;PMS7003;17465;47.934;33.430;2023-05-07T11:48:44;3.60;3.60;2.80
30713;PMS7003;17465;47.934;33.430;2023-05-07T11:51:21;6.20;6.20;3.20
30713;PMS7003;17465;47.934;33.430;2023-05-07T11:53:59;4.60;4.60;1.00
30713;PMS7003;17465;47.934;33.430;2023-05-07T11:56:25;4.80;4.80;4.00
30713;PMS7003;17465;47.934;33.430;2023-05-07T11:58:55;6.80;5.40;3.00
30713;PMS7003;17465;47.934;33.430;2023-05-07T12:01:27;5.20;5.20;2.00
30713;PMS7003;17465;47.934;33.430;2023-05-07T12:03:58;4.60;4.00;2.40
30713;PMS7003;17465;47.934;33.430;2023-05-07T12:06:29;5.80;5.80;3.60
30713;PMS7003;17465;47.934;33.430;2023-05-07T12:09:04;3.20;3.20;1.60
30713;PMS7003;17465;47.934;33.430;2023-05-07T12:11:35;6.00;6.00;3.60
30713;PMS7003;17465;47.934;33.430;2023-05-07T12:14:05;4.00;4.00;2.00
30713;PMS7003;17465;47.934;33.430;2023-05-07T12:16:39;6.40;6.40;4.20
30713;PMS7003;17465;47.934;33.430;2023-05-07T12:19:32;4.00;4.00;2.00
30713;PMS7003;17465;47.934;33.430;2023-05-07T12:21:49;3.40;3.40;2.00
30713;PMS7003;17465;47.934;33.430;2023-05-07T12:24:21;8.80;8.20;4.60
30713;PMS7003;17465;47.934;33.430;2023-05-07T12:26:52;6.80;6.80;4.20
30713;PMS7003;17465;47.934;33.430;2023-05-07T12:29:22;4.00;4.00;2.20
30713;PMS7003;17465;47.934;33.430;2023-05-07T12:31:53;2.00;2.00;1.60
30713;PMS7003;17465;47.934;33.430;2023-05-07T12:34:32;5.40;5.40;3.60
30713;PMS7003;17465;47.934;33.430;2023-05-07T12:37:04;5.60;5.40;3.60
30713;PMS7003;17465;47.934;33.430;2023-05-07T12:39:36;7.20;7.20;5.20
30713;PMS7003;17465;47.934;33.430;2023-05-07T12:42:06;6.20;6.20;3.60
30713;PMS7003;17465;47.934;33.430;2023-05-07T12:44:37;7.60;7.00;5.00
30713;PMS7003;17465;47.934;33.430;2023-05-07T12:47:07;5.80;5.80;4.00
30713;PMS7003;17465;47.934;33.430;2023-05-07T12:49:38;5.00;5.00;3.60
30713;PMS7003;17465;47.934;33.430;2023-05-07T12:52:11;0.00;0.00;0.00
30713;PMS7003;17465;47.934;33.430;2023-05-07T12:54:42;6.80;5.80;3.20
30713;PMS7003;17465;47.934;33.430;2023-05-07T12:57:18;4.00;4.00;2.00
30713;PMS7003;17465;47.934;33.430;2023-05-07T12:59:51;4.80;4.80;2.80
30713;PMS7003;17465;47.934;33.430;2023-05-07T13:02:33;3.80;3.80;2.00
30713;PMS7003;17465;47.934;33.430;2023-05-07T13:05:07;6.00;6.00;3.20
30713;PMS7003;17465;47.934;33.430;2023-05-07T13:07:52;3.40;3.40;2.00
30713;PMS7003;17465;47.934;33.430;2023-05-07T13:10:17;4.40;4.40;3.40
30713;PMS7003;17465;47.934;33.430;2023-05-07T13:12:47;6.00;5.80;3.80
30713;PMS7003;17465;47.934;33.430;2023-05-07T13:15:18;5.20;4.60;3.00
30713;PMS7003;17465;47.934;33.430;2023-05-07T13:17:48;5.00;4.40;1.80
30713;PMS7003;17465;47.934;33.430;2023-05-07T13:20:19;4.40;4.00;1.60
30713;PMS7003;17465;47.934;33.430;2023-05-07T13:22:50;4.80;4.40;2.20
30713;PMS7003;17465;47.934;33.430;2023-05-07T13:25:20;6.40;6.00;3.60
30713;PMS7003;17465;47.934;33.430;2023-05-07T13:27:57;7.00;7.00;3.20
30713;PMS7003;17465;47.934;33.430;2023-05-07T13:30:32;5.80;5.00;3.00
30713;PMS7003;17465;47.934;33.430;2023-05-07T13:33:03;4.40;4.00;2.00
30713;PMS7003;17465;47.934;33.430;2023-05-07T13:35:46;6.00;5.00;3.40
30713;PMS7003;17465;47.934;33.430;2023-05-07T13:38:17;5.20;4.80;1.80
30713;PMS7003;17465;47.934;33.430;2023-05-07T13:40:53;5.00;5.00;2.40
30713;PMS7003;17465;47.934;33.430;2023-05-07T13:43:28;5.40;5.40;3.00
30713;PMS7003;17465;47.934;33.430;2023-05-07T13:45:59;5.80;4.00;3.00
30713;PMS7003;17465;47.934;33.430;2023-05-07T13:48:30;7.20;7.20;5.00
30713;PMS7003;17465;47.934;33.430;2023-05-07T13:51:01;11.80;10.00;6.20
30713;PMS7003;17465;47.934;33.430;2023-05-07T13:53:36;8.40;8.40;5.00
30713;PMS7003;17465;47.934;33.430;2023-05-07T13:56:22;6.00;5.20;3.40
30713;PMS7003;17465;47.934;33.430;2023-05-07T13:58:55;5.40;5.40;4.20
30713;PMS7003;17465;47.934;33.430;2023-05-07T14:01:26;4.60;3.60;2.40
30713;PMS7003;17465;47.934;33.430;2023-05-07T14:04:06;7.40;7.40;4.00
30713;PMS7003;17465;47.934;33.430;2023-05-07T14:06:40;6.40;5.20;3.40
30713;PMS7003;17465;47.934;33.430;2023-05-07T14:09:17;4.80;4.80;3.40
30713;PMS7003;17465;47.934;33.430;2023-05-07T14:11:52;3.60;3.60;1.80
30713;PMS7003;17465;47.934;33.430;2023-05-07T14:14:26;4.00;4.00;2.00
30713;PMS7003;17465;47.934;33.430;2023-05-07T14:17:30;6.60;5.60;2.60
30713;PMS7003;17465;47.934;33.430;2023-05-07T14:20:17;4.40;3.80;3.00
30713;PMS7003;17465;47.934;33.430;2023-05-07T14:22:48;2.00;2.00;1.00
30713;PMS7003;17465;47.934;33.430;2023-05-07T14:25:19;6.20;5.00;3.60
30713;PMS7003;17465;47.934;33.430;2023-05-07T14:27:54;3.80;3.80;1.80
30713;PMS7003;17465;47.934;33.430;2023-05-07T14:30:25;8.60;8.00;6.00
30713;PMS7003;17465;47.934;33.430;2023-05-07T14:33:00;5.20;3.80;2.00
30713;PMS7003;17465;47.934;33.430;2023-05-07T14:35:31;4.80;4.40;2.40
30713;PMS7003;17465;47.934;33.430;2023-05-07T14:38:02;4.40;4.40;2.40
30713;PMS7003;17465;47.934;33.430;2023-05-07T14:40:33;3.00;3.00;1.00
30713;PMS7003;17465;47.934;33.430;2023-05-07T14:43:04;6.60;5.60;4.20